Time;durP1;ratioP1;P1;durP2;ratioP2;P2;SDS_P1;SDS_P2;PMS_P1;PMS_P2;Temp;Humidity;BMP_temperature;BMP_pressure;BME280_temperature;BME280_humidity;BME280_pressure;Samples;Min_cycle;Max_cycle;Signal;HPM_P1;HPM_P2
2022/07/11 00:00:59;;;;;;;2.55;1.40;;;;;;;;;;5094050;28;25268;-47
2022/07/11 00:03:24;;;;;;;2.20;1.80;;;;;;;;;;5103126;27;24422;-47
2022/07/11 00:05:49;;;;;;;2.45;1.80;;;;;;;;;;5104426;27;24424;-46
2022/07/11 00:08:14;;;;;;;2.10;1.60;;;;;;;;;;5103620;28;24590;-46
2022/07/11 00:10:40;;;;;;;2.03;1.48;;;;;;;;;;5092272;27;24418;-46
2022/07/11 00:13:05;;;;;;;1.97;1.63;;;;;;;;;;5084197;28;24429;-47
2022/07/11 00:15:30;;;;;;;1.50;1.40;;;;;;;;;;5093399;28;24428;-46
2022/07/11 00:17:57;;;;;;;1.67;1.57;;;;;;;;;;5102702;28;24409;-47
2022/07/11 00:20:22;;;;;;;2.55;1.60;;;;;;;;;;5107867;28;24527;-46
2022/07/11 00:22:47;;;;;;;1.90;1.50;;;;;;;;;;5103645;28;24562;-46
2022/07/11 00:25:12;;;;;;;1.70;1.60;;;;;;;;;;5098416;28;24432;-46
2022/07/11 00:27:37;;;;;;;1.83;1.50;;;;;;;;;;5103203;28;24788;-46
2022/07/11 00:30:03;;;;;;;1.50;1.40;;;;;;;;;;5098467;28;24425;-47
2022/07/11 00:32:28;;;;;;;1.53;1.43;;;;;;;;;;5096582;28;24433;-46
2022/07/11 00:34:53;;;;;;;2.75;1.65;;;;;;;;;;5098819;28;24414;-46
2022/07/11 00:37:18;;;;;;;2.20;1.50;;;;;;;;;;5098651;28;24417;-48
2022/07/11 00:39:43;;;;;;;1.75;1.50;;;;;;;;;;5105853;28;25232;-46
2022/07/11 00:42:08;;;;;;;1.80;1.40;;;;;;;;;;5102245;28;24450;-46
2022/07/11 00:44:36;;;;;;;2.40;1.53;;;;;;;;;;5097764;28;24422;-46
2022/07/11 00:47:01;;;;;;;1.70;1.50;;;;;;;;;;5093663;28;24414;-46
2022/07/11 00:49:26;;;;;;;1.60;1.42;;;;;;;;;;5103061;28;24531;-46
2022/07/11 00:51:51;;;;;;;2.20;1.33;;;;;;;;;;5096762;28;24429;-46
2022/07/11 00:54:16;;;;;;;2.40;1.50;;;;;;;;;;5102599;28;24424;-46
2022/07/11 00:56:42;;;;;;;2.20;1.50;;;;;;;;;;5096595;28;24871;-46
2022/07/11 00:59:08;;;;;;;1.60;1.50;;;;;;;;;;5098897;28;24467;-47
2022/07/11 01:01:34;;;;;;;1.63;1.52;;;;;;;;;;5101607;27;24834;-46
2022/07/11 01:04:01;;;;;;;1.50;1.40;;;;;;;;;;5094749;28;24908;-46
2022/07/11 01:06:26;;;;;;;2.30;1.63;;;;;;;;;;5091640;28;24480;-47
2022/07/11 01:08:51;;;;;;;2.40;1.37;;;;;;;;;;5097441;28;24430;-46
2022/07/11 01:11:17;;;;;;;2.45;1.52;;;;;;;;;;5088561;28;24419;-46
2022/07/11 01:13:43;;;;;;;1.60;1.50;;;;;;;;;;5088127;28;24997;-46
2022/07/11 01:16:08;;;;;;;2.43;1.60;;;;;;;;;;5090743;28;24579;-46
2022/07/11 01:18:34;;;;;;;1.85;1.70;;;;;;;;;;5096933;28;25012;-45
2022/07/11 01:20:59;;;;;;;1.97;1.30;;;;;;;;;;5093177;28;24515;-46
2022/07/11 01:23:24;;;;;;;2.13;1.65;;;;;;;;;;5097998;28;24510;-46
2022/07/11 01:25:49;;;;;;;1.80;1.38;;;;;;;;;;5101372;27;24457;-46
2022/07/11 01:28:14;;;;;;;2.10;1.60;;;;;;;;;;5096121;28;24423;-45
2022/07/11 01:30:40;;;;;;;2.50;1.50;;;;;;;;;;5094500;28;24429;-46
2022/07/11 01:33:05;;;;;;;1.50;1.40;;;;;;;;;;5094470;28;24422;-46
2022/07/11 01:35:30;;;;;;;2.25;1.60;;;;;;;;;;5103500;27;24740;-46
2022/07/11 01:37:55;;;;;;;2.00;1.67;;;;;;;;;;5092855;28;25211;-46
2022/07/11 01:40:20;;;;;;;2.35;1.70;;;;;;;;;;5088293;28;24449;-46
2022/07/11 01:42:45;;;;;;;2.40;1.80;;;;;;;;;;5086968;28;24455;-46
2022/07/11 01:45:11;;;;;;;1.60;1.50;;;;;;;;;;5093600;28;24429;-45
2022/07/11 01:47:37;;;;;;;1.70;1.60;;;;;;;;;;5092887;28;24456;-46
2022/07/11 01:50:02;;;;;;;1.50;1.40;;;;;;;;;;5091686;28;25014;-46
2022/07/11 01:52:28;;;;;;;1.92;1.50;;;;;;;;;;5091763;28;24437;-46
2022/07/11 01:54:53;;;;;;;3.13;1.70;;;;;;;;;;5099798;28;24480;-46
2022/07/11 01:57:18;;;;;;;1.73;1.50;;;;;;;;;;5087831;28;24426;-46
2022/07/11 01:59:43;;;;;;;2.17;1.55;;;;;;;;;;5097226;28;24410;-46
2022/07/11 02:02:09;;;;;;;2.10;1.60;;;;;;;;;;5097049;28;25167;-46
2022/07/11 02:04:34;;;;;;;1.50;1.40;;;;;;;;;;5094783;28;24442;-46
2022/07/11 02:06:59;;;;;;;1.58;1.40;;;;;;;;;;5095177;28;24414;-46
2022/07/11 02:09:24;;;;;;;1.50;1.40;;;;;;;;;;5092763;28;24465;-46
2022/07/11 02:11:50;;;;;;;1.85;1.30;;;;;;;;;;5084411;28;24510;-46
2022/07/11 02:14:15;;;;;;;2.10;1.50;;;;;;;;;;5087848;28;24422;-46
2022/07/11 02:16:40;;;;;;;1.40;1.30;;;;;;;;;;5089341;28;24463;-46
2022/07/11 02:19:06;;;;;;;1.70;1.43;;;;;;;;;;5099326;28;25031;-46
2022/07/11 02:21:31;;;;;;;1.90;1.60;;;;;;;;;;5089598;28;24441;-46
2022/07/11 02:23:56;;;;;;;1.70;1.60;;;;;;;;;;5093543;28;24788;-46
2022/07/11 02:26:21;;;;;;;2.35;1.50;;;;;;;;;;5097824;28;24433;-47
2022/07/11 02:28:47;;;;;;;2.30;1.80;;;;;;;;;;5095233;28;25087;-47
2022/07/11 02:31:12;;;;;;;1.83;1.50;;;;;;;;;;5090951;28;24513;-47
2022/07/11 02:33:37;;;;;;;1.77;1.60;;;;;;;;;;5093785;28;24428;-46
2022/07/11 02:36:03;;;;;;;1.60;1.50;;;;;;;;;;5104668;28;24510;-46
2022/07/11 02:38:28;;;;;;;1.50;1.40;;;;;;;;;;5095371;28;24612;-46
2022/07/11 02:40:53;;;;;;;1.40;1.30;;;;;;;;;;5103005;28;24425;-46
2022/07/11 02:43:18;;;;;;;1.40;1.30;;;;;;;;;;5094240;28;24469;-46
2022/07/11 02:45:43;;;;;;;1.63;1.50;;;;;;;;;;5086779;28;24463;-46
2022/07/11 02:48:09;;;;;;;1.75;1.60;;;;;;;;;;5093418;28;24455;-46
2022/07/11 02:50:34;;;;;;;1.60;1.50;;;;;;;;;;5107874;28;24951;-46
2022/07/11 02:52:59;;;;;;;2.30;1.70;;;;;;;;;;5098220;28;24444;-46
2022/07/11 02:55:24;;;;;;;1.65;1.50;;;;;;;;;;5100180;28;24512;-46
2022/07/11 02:57:49;;;;;;;1.83;1.73;;;;;;;;;;5100041;28;24433;-46
2022/07/11 03:00:15;;;;;;;2.28;1.83;;;;;;;;;;5095213;28;24763;-46
2022/07/11 03:02:41;;;;;;;2.00;1.30;;;;;;;;;;5091301;28;24430;-47
2022/07/11 03:05:06;;;;;;;2.63;1.90;;;;;;;;;;5091742;28;24471;-46
2022/07/11 03:07:31;;;;;;;2.27;1.60;;;;;;;;;;5100100;28;24455;-46
2022/07/11 03:09:57;;;;;;;1.90;1.33;;;;;;;;;;5089687;28;24994;-47
2022/07/11 03:12:22;;;;;;;2.97;1.90;;;;;;;;;;5099438;28;25011;-46
2022/07/11 03:14:47;;;;;;;1.70;1.60;;;;;;;;;;5092396;28;24418;-46
2022/07/11 03:17:12;;;;;;;2.50;2.07;;;;;;;;;;5097576;28;24456;-46
2022/07/11 03:19:37;;;;;;;1.60;1.50;;;;;;;;;;5099944;28;24420;-46
2022/07/11 03:22:04;;;;;;;2.70;1.70;;;;;;;;;;5101206;28;24963;-46
2022/07/11 03:24:29;;;;;;;3.00;1.97;;;;;;;;;;5099062;28;24418;-47
2022/07/11 03:26:54;;;;;;;2.20;1.90;;;;;;;;;;5088896;28;24425;-46
2022/07/11 03:29:19;;;;;;;2.20;1.90;;;;;;;;;;5090601;28;24832;-46
2022/07/11 03:31:44;;;;;;;2.30;2.00;;;;;;;;;;5101697;28;24788;-46
2022/07/11 03:34:09;;;;;;;1.83;1.70;;;;;;;;;;5106111;28;24421;-46
2022/07/11 03:36:34;;;;;;;3.50;1.90;;;;;;;;;;5102853;28;24636;-46
2022/07/11 03:39:00;;;;;;;2.38;1.80;;;;;;;;;;5096628;28;25025;-46
2022/07/11 03:41:25;;;;;;;2.80;1.70;;;;;;;;;;5101420;27;24498;-46
2022/07/11 03:43:50;;;;;;;1.83;1.73;;;;;;;;;;5104176;28;24516;-46
2022/07/11 03:46:15;;;;;;;2.60;2.07;;;;;;;;;;5104912;27;24518;-46
2022/07/11 03:48:41;;;;;;;1.57;1.40;;;;;;;;;;5111425;27;24433;-45
2022/07/11 03:51:06;;;;;;;2.40;1.60;;;;;;;;;;5096587;27;24422;-45
2022/07/11 03:53:31;;;;;;;2.30;1.70;;;;;;;;;;5101554;28;24426;-46
2022/07/11 03:55:56;;;;;;;2.10;1.90;;;;;;;;;;5101194;27;24496;-45
2022/07/11 03:58:21;;;;;;;2.22;1.80;;;;;;;;;;5097838;28;24479;-47
2022/07/11 04:00:46;;;;;;;2.63;2.00;;;;;;;;;;5105123;28;24446;-47
2022/07/11 04:03:11;;;;;;;2.10;1.90;;;;;;;;;;5095416;28;24505;-46
2022/07/11 04:05:37;;;;;;;3.93;2.00;;;;;;;;;;5107087;28;24985;-47
2022/07/11 04:08:02;;;;;;;2.20;1.80;;;;;;;;;;5092415;28;24430;-46
2022/07/11 04:10:27;;;;;;;2.23;1.80;;;;;;;;;;5097646;28;24496;-46
2022/07/11 04:12:52;;;;;;;2.00;1.80;;;;;;;;;;5097108;27;25019;-46
2022/07/11 04:15:17;;;;;;;3.17;1.80;;;;;;;;;;5091594;28;24546;-46
2022/07/11 04:17:43;;;;;;;1.80;1.70;;;;;;;;;;5104380;28;24541;-47
2022/07/11 04:20:08;;;;;;;4.13;1.90;;;;;;;;;;5106856;27;24484;-46
2022/07/11 04:22:33;;;;;;;1.90;1.67;;;;;;;;;;5102965;27;24796;-47
2022/07/11 04:24:58;;;;;;;3.08;1.40;;;;;;;;;;5102531;27;24455;-46
2022/07/11 04:27:27;;;;;;;2.40;1.90;;;;;;;;;;5093278;28;24498;-46
2022/07/11 04:29:53;;;;;;;2.80;1.80;;;;;;;;;;5092767;28;25023;-46
2022/07/11 04:32:18;;;;;;;3.53;1.80;;;;;;;;;;5102571;27;24516;-47
2022/07/11 04:34:43;;;;;;;2.20;1.70;;;;;;;;;;5091029;28;24522;-48
2022/07/11 04:37:09;;;;;;;3.03;1.70;;;;;;;;;;5094701;28;24838;-47
2022/07/11 04:39:34;;;;;;;2.60;1.80;;;;;;;;;;5096575;28;24430;-47
2022/07/11 04:42:00;;;;;;;2.80;1.90;;;;;;;;;;5096408;27;25070;-47
2022/07/11 04:44:26;;;;;;;3.40;2.10;;;;;;;;;;5097460;28;24457;-47
2022/07/11 04:46:51;;;;;;;2.50;2.00;;;;;;;;;;5090298;28;24465;-47
2022/07/11 04:49:16;;;;;;;2.78;1.50;;;;;;;;;;5106235;27;24497;-48
2022/07/11 04:51:41;;;;;;;2.93;1.60;;;;;;;;;;5089849;28;24426;-47
2022/07/11 04:54:06;;;;;;;2.80;1.90;;;;;;;;;;5095930;28;25045;-47
2022/07/11 04:56:31;;;;;;;2.63;1.60;;;;;;;;;;5095667;28;24417;-47
2022/07/11 04:58:57;;;;;;;3.23;1.70;;;;;;;;;;5090311;28;26166;-46
2022/07/11 05:01:22;;;;;;;2.72;1.60;;;;;;;;;;5103159;28;24487;-45
2022/07/11 05:03:47;;;;;;;3.63;1.80;;;;;;;;;;5102497;28;24440;-46
2022/07/11 05:06:13;;;;;;;4.65;1.70;;;;;;;;;;5102033;28;24436;-46
2022/07/11 05:08:38;;;;;;;2.60;1.80;;;;;;;;;;5096771;28;24840;-45
2022/07/11 05:11:04;;;;;;;3.80;1.70;;;;;;;;;;5101938;28;24417;-45
2022/07/11 05:13:29;;;;;;;2.67;1.40;;;;;;;;;;5082994;28;24529;-45
2022/07/11 05:15:54;;;;;;;1.90;1.70;;;;;;;;;;5089005;28;24501;-46
2022/07/11 05:18:20;;;;;;;2.80;1.80;;;;;;;;;;5089872;28;24521;-46
2022/07/11 05:20:45;;;;;;;3.43;1.80;;;;;;;;;;5099042;27;24442;-46
2022/07/11 05:23:10;;;;;;;2.73;1.50;;;;;;;;;;5097448;28;24433;-46
2022/07/11 05:25:35;;;;;;;2.83;1.63;;;;;;;;;;5108856;27;24837;-46
2022/07/11 05:28:00;;;;;;;2.70;1.60;;;;;;;;;;5119213;27;24990;-45
2022/07/11 05:30:25;;;;;;;2.50;1.27;;;;;;;;;;5093421;28;24430;-46
2022/07/11 05:32:51;;;;;;;2.30;1.63;;;;;;;;;;5112299;27;24452;-47
2022/07/11 05:35:16;;;;;;;1.57;1.40;;;;;;;;;;5115235;27;24448;-46
2022/07/11 05:37:41;;;;;;;3.25;1.83;;;;;;;;;;5107100;27;24463;-47
2022/07/11 05:40:07;;;;;;;2.87;1.77;;;;;;;;;;5109511;27;24421;-47
2022/07/11 05:42:32;;;;;;;2.47;1.50;;;;;;;;;;5117651;27;24428;-47
2022/07/11 05:44:57;;;;;;;3.10;1.80;;;;;;;;;;5121061;27;25199;-48
2022/07/11 05:47:22;;;;;;;4.00;1.60;;;;;;;;;;5118443;27;24452;-47
2022/07/11 05:49:47;;;;;;;2.80;1.40;;;;;;;;;;5115100;27;24405;-47
2022/07/11 05:52:12;;;;;;;4.32;1.63;;;;;;;;;;5102242;28;24982;-47
2022/07/11 05:54:38;;;;;;;4.13;1.60;;;;;;;;;;5105179;28;24489;-47
2022/07/11 05:57:03;;;;;;;2.65;1.30;;;;;;;;;;5108270;27;24928;-47
2022/07/11 05:59:28;;;;;;;2.93;1.53;;;;;;;;;;5091805;28;24447;-47
2022/07/11 06:01:54;;;;;;;3.13;1.70;;;;;;;;;;5100158;28;24424;-46
2022/07/11 06:04:19;;;;;;;3.13;1.70;;;;;;;;;;5104436;28;24756;-46
2022/07/11 06:06:44;;;;;;;2.33;1.30;;;;;;;;;;5104608;28;24927;-47
2022/07/11 06:09:09;;;;;;;3.22;1.70;;;;;;;;;;5102218;28;24433;-46
2022/07/11 06:11:34;;;;;;;3.93;1.60;;;;;;;;;;5095137;28;24437;-46
2022/07/11 06:13:59;;;;;;;3.20;1.40;;;;;;;;;;5094182;28;24429;-46
2022/07/11 06:16:25;;;;;;;2.03;1.50;;;;;;;;;;5089939;28;24575;-46
2022/07/11 06:18:50;;;;;;;3.35;1.60;;;;;;;;;;5099442;28;24409;-46
2022/07/11 06:21:16;;;;;;;3.42;1.80;;;;;;;;;;5104968;28;25020;-46
2022/07/11 06:23:42;;;;;;;3.67;1.73;;;;;;;;;;5105158;28;25013;-46
2022/07/11 06:26:07;;;;;;;1.67;1.30;;;;;;;;;;5099379;28;24997;-46
2022/07/11 06:28:32;;;;;;;3.15;1.60;;;;;;;;;;5101283;28;24711;-47
2022/07/11 06:30:58;;;;;;;3.27;1.90;;;;;;;;;;5097085;28;24417;-46
2022/07/11 06:33:23;;;;;;;2.92;1.80;;;;;;;;;;5106173;28;24466;-46
2022/07/11 06:35:48;;;;;;;2.17;1.60;;;;;;;;;;5104127;28;24487;-46
2022/07/11 06:38:14;;;;;;;4.17;2.07;;;;;;;;;;5091725;28;24460;-46
2022/07/11 06:40:40;;;;;;;2.13;1.63;;;;;;;;;;5090763;28;24456;-47
2022/07/11 06:43:06;;;;;;;3.25;1.50;;;;;;;;;;5103479;28;24424;-46
2022/07/11 06:45:31;;;;;;;1.93;1.50;;;;;;;;;;5104477;28;25846;-46
2022/07/11 06:47:56;;;;;;;2.90;1.70;;;;;;;;;;5097897;28;25062;-46
2022/07/11 06:50:22;;;;;;;3.15;1.88;;;;;;;;;;5096870;28;25027;-46
2022/07/11 06:52:47;;;;;;;2.90;1.90;;;;;;;;;;5094216;28;24437;-46
2022/07/11 06:55:13;;;;;;;2.40;1.80;;;;;;;;;;5092818;28;24772;-46
2022/07/11 06:57:38;;;;;;;3.17;2.00;;;;;;;;;;5087081;28;24409;-47
2022/07/11 07:00:03;;;;;;;2.13;1.40;;;;;;;;;;5096705;28;24425;-47
2022/07/11 07:02:30;;;;;;;3.90;1.90;;;;;;;;;;5085132;28;25014;-46
2022/07/11 07:04:55;;;;;;;3.25;1.70;;;;;;;;;;5067743;28;24437;-47
2022/07/11 07:07:21;;;;;;;3.47;1.90;;;;;;;;;;5085327;28;24863;-47
2022/07/11 07:09:46;;;;;;;3.20;1.60;;;;;;;;;;5084799;28;24493;-46
2022/07/11 07:12:11;;;;;;;2.90;1.80;;;;;;;;;;5085275;28;24443;-47
2022/07/11 07:14:36;;;;;;;3.40;1.63;;;;;;;;;;5094738;28;24592;-47
2022/07/11 07:17:01;;;;;;;3.15;1.58;;;;;;;;;;5105199;28;24394;-46
2022/07/11 07:19:26;;;;;;;2.07;1.70;;;;;;;;;;5103230;28;24417;-47
2022/07/11 07:21:51;;;;;;;5.00;1.90;;;;;;;;;;5109562;28;24418;-47
2022/07/11 07:24:17;;;;;;;2.20;1.50;;;;;;;;;;5105194;28;24449;-47
2022/07/11 07:26:42;;;;;;;3.33;1.67;;;;;;;;;;5101181;28;24421;-46
2022/07/11 07:29:07;;;;;;;3.88;1.80;;;;;;;;;;5109011;28;24404;-46
2022/07/11 07:31:32;;;;;;;1.80;1.30;;;;;;;;;;5087685;28;24461;-47
2022/07/11 07:33:57;;;;;;;2.90;1.60;;;;;;;;;;5094718;27;24430;-45
2022/07/11 07:36:22;;;;;;;2.70;1.47;;;;;;;;;;5089238;28;24414;-46
2022/07/11 07:38:48;;;;;;;2.90;1.70;;;;;;;;;;5092447;28;24430;-47
2022/07/11 07:41:13;;;;;;;1.93;1.60;;;;;;;;;;5090841;28;24513;-46
2022/07/11 07:43:38;;;;;;;2.70;1.70;;;;;;;;;;5090280;28;24467;-47
2022/07/11 07:46:04;;;;;;;4.80;2.00;;;;;;;;;;5106988;28;24412;-46
2022/07/11 07:48:29;;;;;;;5.07;1.80;;;;;;;;;;5108984;28;24494;-45
2022/07/11 07:50:55;;;;;;;1.73;1.30;;;;;;;;;;5098826;28;24440;-46
2022/07/11 07:53:20;;;;;;;3.10;1.80;;;;;;;;;;5101188;27;24834;-46
2022/07/11 07:55:45;;;;;;;2.67;1.58;;;;;;;;;;5105624;28;24390;-47
2022/07/11 07:58:10;;;;;;;2.63;1.50;;;;;;;;;;5101705;28;24490;-47
2022/07/11 08:03:19;;;;;;;2.50;1.40;;;;;;;;;;5102982;28;24487;-46
2022/07/11 08:05:44;;;;;;;2.90;1.60;;;;;;;;;;5103199;28;24433;-46
2022/07/11 08:08:10;;;;;;;3.55;1.60;;;;;;;;;;5101431;28;24426;-47
2022/07/11 08:10:36;;;;;;;1.80;1.37;;;;;;;;;;5100755;28;24422;-47
2022/07/11 08:13:01;;;;;;;2.27;1.30;;;;;;;;;;5099305;28;24422;-48
2022/07/11 08:15:27;;;;;;;3.13;1.50;;;;;;;;;;5098583;28;24424;-47
2022/07/11 08:17:52;;;;;;;2.60;1.30;;;;;;;;;;5098938;28;24955;-47
2022/07/11 08:20:17;;;;;;;2.10;1.23;;;;;;;;;;5093448;28;24417;-48
2022/07/11 08:22:43;;;;;;;2.90;1.40;;;;;;;;;;5094768;28;25005;-47
2022/07/11 08:25:08;;;;;;;1.50;1.25;;;;;;;;;;5091543;28;24436;-47
2022/07/11 08:27:35;;;;;;;2.10;1.85;;;;;;;;;;5087500;28;24454;-47
2022/07/11 08:30:00;;;;;;;2.50;1.38;;;;;;;;;;5086678;28;24460;-46
2022/07/11 08:32:25;;;;;;;3.43;1.40;;;;;;;;;;5107476;28;24441;-47
2022/07/11 08:34:51;;;;;;;1.60;1.30;;;;;;;;;;5108338;28;24393;-47
2022/07/11 08:37:16;;;;;;;2.70;1.40;;;;;;;;;;5107370;28;24969;-45
2022/07/11 08:39:41;;;;;;;3.10;1.90;;;;;;;;;;5107303;28;25157;-47
2022/07/11 08:42:06;;;;;;;2.87;1.50;;;;;;;;;;5105707;28;24420;-47
2022/07/11 08:44:32;;;;;;;1.90;1.60;;;;;;;;;;5107240;28;24448;-47
2022/07/11 08:46:58;;;;;;;2.30;1.60;;;;;;;;;;5107629;28;24390;-46
2022/07/11 08:49:24;;;;;;;2.80;1.40;;;;;;;;;;5107502;28;24520;-46
2022/07/11 08:51:49;;;;;;;2.23;1.43;;;;;;;;;;5105174;28;24525;-46
2022/07/11 08:54:14;;;;;;;2.70;1.63;;;;;;;;;;5107394;28;25029;-45
2022/07/11 08:56:40;;;;;;;3.07;1.77;;;;;;;;;;5107331;28;24405;-46
2022/07/11 08:59:07;;;;;;;2.53;1.40;;;;;;;;;;5107216;28;24389;-45
2022/07/11 09:01:34;;;;;;;1.83;1.33;;;;;;;;;;5105182;28;24405;-46
2022/07/11 09:04:00;;;;;;;3.67;1.55;;;;;;;;;;5087240;28;24427;-47
2022/07/11 09:06:25;;;;;;;2.00;1.30;;;;;;;;;;5086658;28;24406;-46
2022/07/11 09:08:50;;;;;;;2.10;1.60;;;;;;;;;;5086528;28;24964;-47
2022/07/11 09:11:16;;;;;;;4.15;1.60;;;;;;;;;;5086509;28;24417;-47
2022/07/11 09:13:41;;;;;;;2.77;1.70;;;;;;;;;;5087205;28;24436;-47
2022/07/11 09:16:07;;;;;;;2.20;1.60;;;;;;;;;;5086766;28;24416;-47
2022/07/11 09:18:32;;;;;;;1.63;1.33;;;;;;;;;;5086545;28;25029;-47
2022/07/11 09:26:31;;;;;;;1.90;1.40;;;;;;;;;;5086879;28;24409;-46
2022/07/11 09:29:13;;;;;;;2.38;1.40;;;;;;;;;;5086676;28;24393;-46
2022/07/11 09:31:39;;;;;;;1.80;1.10;;;;;;;;;;5086295;28;24394;-46
2022/07/11 09:34:08;;;;;;;1.90;1.30;;;;;;;;;;5086276;28;24441;-46
2022/07/11 09:36:37;;;;;;;1.40;1.17;;;;;;;;;;5086387;28;24773;-45
2022/07/11 09:39:03;;;;;;;2.20;1.35;;;;;;;;;;5086363;28;24391;-46
2022/07/11 09:41:30;;;;;;;2.05;1.30;;;;;;;;;;5085770;28;24439;-47
2022/07/11 09:44:09;;;;;;;1.50;1.40;;;;;;;;;;5086244;28;25018;-46
2022/07/11 09:46:35;;;;;;;2.22;1.20;;;;;;;;;;5085769;28;24966;-47
2022/07/11 09:49:00;;;;;;;2.70;1.40;;;;;;;;;;5086335;28;24527;-47
2022/07/11 09:51:26;;;;;;;2.60;1.50;;;;;;;;;;5086117;28;24424;-46
2022/07/11 09:53:56;;;;;;;1.40;1.20;;;;;;;;;;5086674;28;24421;-47
2022/07/11 09:56:25;;;;;;;1.90;1.10;;;;;;;;;;5106453;28;25018;-46
2022/07/11 09:59:03;;;;;;;3.50;1.33;;;;;;;;;;5102704;28;24959;-45
2022/07/11 10:01:29;;;;;;;2.50;1.10;;;;;;;;;;5094328;28;24461;-46
2022/07/11 10:03:55;;;;;;;2.40;1.00;;;;;;;;;;5097969;28;24985;-46
2022/07/11 10:06:21;;;;;;;2.08;1.30;;;;;;;;;;5103382;28;24505;-46
2022/07/11 10:08:47;;;;;;;2.77;1.20;;;;;;;;;;5103507;28;24408;-47
2022/07/11 10:11:12;;;;;;;1.40;1.00;;;;;;;;;;5096338;28;24437;-46
2022/07/11 10:13:38;;;;;;;0.95;0.90;;;;;;;;;;5082984;28;24465;-46
2022/07/11 10:16:07;;;;;;;1.98;1.20;;;;;;;;;;5093591;28;24426;-46
2022/07/11 10:18:39;;;;;;;1.08;0.90;;;;;;;;;;5104823;28;24406;-46
2022/07/11 10:21:14;;;;;;;2.50;1.00;;;;;;;;;;5100523;28;24410;-46
2022/07/11 10:23:50;;;;;;;2.25;1.10;;;;;;;;;;5096037;28;24487;-47
2022/07/11 10:26:21;;;;;;;1.60;1.20;;;;;;;;;;5102472;28;24902;-47
2022/07/11 10:28:54;;;;;;;2.30;0.90;;;;;;;;;;5101486;28;24472;-47
2022/07/11 10:31:19;;;;;;;1.70;1.10;;;;;;;;;;5088068;28;25209;-47
2022/07/11 10:34:04;;;;;;;1.30;1.20;;;;;;;;;;5101365;28;24492;-47
2022/07/11 10:36:30;;;;;;;2.57;1.10;;;;;;;;;;5091276;28;24414;-47
2022/07/11 10:39:14;;;;;;;1.40;1.30;;;;;;;;;;5092793;28;24934;-46
2022/07/11 10:41:39;;;;;;;1.80;1.30;;;;;;;;;;5083349;28;25045;-47
2022/07/11 10:44:04;;;;;;;1.35;1.20;;;;;;;;;;5091409;28;24649;-47
2022/07/11 10:46:29;;;;;;;1.80;1.00;;;;;;;;;;5082607;28;24756;-47
2022/07/11 10:49:06;;;;;;;1.13;1.00;;;;;;;;;;5083960;28;24538;-47
2022/07/11 10:51:34;;;;;;;1.42;0.90;;;;;;;;;;5100435;28;24583;-47
2022/07/11 10:54:10;;;;;;;1.10;0.80;;;;;;;;;;5107152;27;24425;-47
2022/07/11 10:56:54;;;;;;;2.00;1.00;;;;;;;;;;5106525;28;24926;-47
2022/07/11 10:59:19;;;;;;;1.27;0.88;;;;;;;;;;5096725;28;24492;-47
2022/07/11 11:02:03;;;;;;;2.55;1.05;;;;;;;;;;5100426;28;24847;-47
2022/07/11 11:04:47;;;;;;;1.67;1.50;;;;;;;;;;5093072;27;24438;-47
2022/07/11 11:07:32;;;;;;;1.70;1.00;;;;;;;;;;5097383;28;24436;-47
2022/07/11 11:09:57;;;;;;;1.30;0.87;;;;;;;;;;5094943;28;25278;-47
2022/07/11 11:12:41;;;;;;;1.23;1.00;;;;;;;;;;5084330;28;24441;-48
2022/07/11 11:15:25;;;;;;;1.35;0.80;;;;;;;;;;5086228;28;24510;-46
2022/07/11 11:17:50;;;;;;;2.28;1.00;;;;;;;;;;5097531;28;24431;-48
2022/07/11 11:20:31;;;;;;;1.20;0.90;;;;;;;;;;5091997;28;24620;-46
2022/07/11 11:23:07;;;;;;;1.60;0.80;;;;;;;;;;5094059;28;24493;-46
2022/07/11 11:25:33;;;;;;;1.40;0.80;;;;;;;;;;5105091;28;24570;-47
2022/07/11 11:28:01;;;;;;;1.53;0.90;;;;;;;;;;5100250;28;24501;-47
2022/07/11 11:30:27;;;;;;;1.77;0.90;;;;;;;;;;5101679;28;24529;-47
2022/07/11 11:32:52;;;;;;;1.90;0.80;;;;;;;;;;5094140;28;24520;-47
2022/07/11 11:35:17;;;;;;;1.00;0.90;;;;;;;;;;5097967;28;24855;-46
2022/07/11 11:37:42;;;;;;;0.90;0.80;;;;;;;;;;5108990;28;24974;-47
2022/07/11 11:40:08;;;;;;;2.20;0.90;;;;;;;;;;5109034;28;24927;-47
2022/07/11 11:42:33;;;;;;;1.02;0.70;;;;;;;;;;5099755;27;24431;-46
2022/07/11 11:45:02;;;;;;;1.60;0.70;;;;;;;;;;5100836;28;25071;-46
2022/07/11 11:47:31;;;;;;;0.77;0.70;;;;;;;;;;5100652;28;24421;-46
2022/07/11 11:49:56;;;;;;;2.00;0.80;;;;;;;;;;5092470;28;24506;-46
2022/07/11 11:52:23;;;;;;;2.30;1.00;;;;;;;;;;5088630;28;24735;-46
2022/07/11 11:54:52;;;;;;;2.40;1.10;;;;;;;;;;5083257;28;25084;-47
2022/07/11 11:57:20;;;;;;;2.23;0.70;;;;;;;;;;5092516;28;25057;-47
2022/07/11 11:59:45;;;;;;;1.10;0.73;;;;;;;;;;5092325;28;24492;-46
2022/07/11 12:02:10;;;;;;;1.10;0.70;;;;;;;;;;5100684;28;24506;-47
2022/07/11 12:04:36;;;;;;;1.53;0.80;;;;;;;;;;5109750;27;25181;-46
2022/07/11 12:07:02;;;;;;;0.83;0.77;;;;;;;;;;5111074;27;24755;-46
2022/07/11 12:09:46;;;;;;;1.53;0.80;;;;;;;;;;5098874;28;24454;-46
2022/07/11 12:14:55;;;;;;;0.70;0.70;;;;;;;;;;5103919;28;24482;-46
2022/07/11 12:17:29;;;;;;;1.45;0.90;;;;;;;;;;5097240;28;25023;-47
2022/07/11 12:19:54;;;;;;;1.02;0.70;;;;;;;;;;5084694;28;24394;-48
2022/07/11 12:22:19;;;;;;;0.73;0.70;;;;;;;;;;5083670;28;24549;-46
2022/07/11 12:24:48;;;;;;;0.80;0.70;;;;;;;;;;5100084;28;24417;-47
2022/07/11 12:27:17;;;;;;;1.35;0.82;;;;;;;;;;5084478;28;24422;-46
2022/07/11 12:29:45;;;;;;;0.70;0.70;;;;;;;;;;5085653;28;24541;-46
2022/07/11 12:32:11;;;;;;;2.22;0.90;;;;;;;;;;5089302;28;24432;-46
2022/07/11 12:34:36;;;;;;;1.30;0.80;;;;;;;;;;5104949;28;24478;-46
2022/07/11 12:37:04;;;;;;;1.02;0.68;;;;;;;;;;5099799;28;24920;-46
2022/07/11 12:39:31;;;;;;;1.50;0.60;;;;;;;;;;5085243;28;24426;-45
2022/07/11 12:41:58;;;;;;;0.90;0.70;;;;;;;;;;5096227;27;24422;-46
2022/07/11 12:47:07;;;;;;;1.35;0.90;;;;;;;;;;5104399;28;24462;-46
2022/07/11 12:49:33;;;;;;;1.20;0.80;;;;;;;;;;5104236;28;24421;-46
2022/07/11 12:51:58;;;;;;;1.35;0.70;;;;;;;;;;5101881;28;24401;-46
2022/07/11 12:54:28;;;;;;;0.80;0.70;;;;;;;;;;5086097;28;25078;-46
2022/07/11 12:56:54;;;;;;;0.70;0.70;;;;;;;;;;5091280;28;24506;-46
2022/07/11 12:59:20;;;;;;;0.80;0.80;;;;;;;;;;5087303;28;24450;-45
2022/07/11 13:01:56;;;;;;;1.10;0.80;;;;;;;;;;5106017;28;24593;-45
2022/07/11 13:04:30;;;;;;;1.02;0.90;;;;;;;;;;5089775;28;24426;-46
2022/07/11 13:09:47;;;;;;;1.20;0.85;;;;;;;;;;5070083;28;24458;-46
2022/07/11 13:12:13;;;;;;;0.80;0.70;;;;;;;;;;5086183;28;24743;-45
2022/07/11 13:17:21;;;;;;;1.02;0.80;;;;;;;;;;5106786;28;24412;-45
2022/07/11 13:19:47;;;;;;;0.90;0.70;;;;;;;;;;5097978;28;24461;-45
2022/07/11 13:22:13;;;;;;;2.08;0.90;;;;;;;;;;5089673;28;25047;-46
2022/07/11 13:24:38;;;;;;;1.30;0.70;;;;;;;;;;5093419;28;24414;-45
2022/07/11 13:27:04;;;;;;;0.90;0.90;;;;;;;;;;5096396;28;24847;-46
2022/07/11 13:29:29;;;;;;;1.30;0.80;;;;;;;;;;5096878;28;25042;-49
2022/07/11 13:31:54;;;;;;;1.40;0.90;;;;;;;;;;5085451;28;24755;-45
2022/07/11 13:34:19;;;;;;;1.63;1.10;;;;;;;;;;5083622;28;24441;-45
2022/07/11 13:36:44;;;;;;;1.20;1.00;;;;;;;;;;5103878;28;24423;-45
2022/07/11 13:39:10;;;;;;;1.00;0.80;;;;;;;;;;5106205;28;24480;-46
2022/07/11 13:41:35;;;;;;;1.43;0.80;;;;;;;;;;5105625;28;24385;-45
2022/07/11 13:44:00;;;;;;;0.90;0.90;;;;;;;;;;5098819;28;24576;-45
2022/07/11 13:46:25;;;;;;;2.50;1.00;;;;;;;;;;5094288;28;24971;-45
2022/07/11 13:48:50;;;;;;;1.60;0.90;;;;;;;;;;5099987;28;24541;-45
2022/07/11 13:51:16;;;;;;;0.80;0.80;;;;;;;;;;5101032;28;25003;-46
2022/07/11 13:53:41;;;;;;;1.50;0.90;;;;;;;;;;5090508;28;24538;-44
2022/07/11 13:56:06;;;;;;;1.40;0.88;;;;;;;;;;5090827;28;24436;-45
2022/07/11 13:58:31;;;;;;;1.60;1.10;;;;;;;;;;5093485;28;24417;-45
2022/07/11 14:01:00;;;;;;;0.80;0.80;;;;;;;;;;5084510;28;24453;-45
2022/07/11 14:03:25;;;;;;;1.25;0.90;;;;;;;;;;5086709;28;24483;-45
2022/07/11 14:05:51;;;;;;;1.50;0.80;;;;;;;;;;5085326;28;24850;-45
2022/07/11 14:08:16;;;;;;;1.60;0.95;;;;;;;;;;5096117;28;24971;-45
2022/07/11 14:10:42;;;;;;;1.80;1.00;;;;;;;;;;5097076;28;24519;-45
2022/07/11 14:13:07;;;;;;;1.70;1.08;;;;;;;;;;5086946;28;24928;-46
2022/07/11 14:15:32;;;;;;;1.27;0.80;;;;;;;;;;5084709;28;24432;-45
2022/07/11 14:17:57;;;;;;;0.88;0.70;;;;;;;;;;5082669;28;24417;-45
2022/07/11 14:20:22;;;;;;;1.00;0.90;;;;;;;;;;5085078;28;24428;-45
2022/07/11 14:22:47;;;;;;;1.40;0.87;;;;;;;;;;5085633;28;24425;-46
2022/07/11 14:25:13;;;;;;;1.02;0.75;;;;;;;;;;5085516;28;24433;-47
2022/07/11 14:27:39;;;;;;;2.10;0.80;;;;;;;;;;5092187;28;24426;-46
2022/07/11 14:30:05;;;;;;;1.10;0.90;;;;;;;;;;5094344;28;24440;-46
2022/07/11 14:32:30;;;;;;;1.30;0.80;;;;;;;;;;5085483;28;24417;-46
2022/07/11 14:34:55;;;;;;;2.00;0.80;;;;;;;;;;5093983;28;24441;-45
2022/07/11 14:37:20;;;;;;;1.60;0.80;;;;;;;;;;5078874;27;24417;-45
2022/07/11 14:39:45;;;;;;;2.20;0.90;;;;;;;;;;5086564;28;24775;-46
2022/07/11 14:42:11;;;;;;;1.20;1.00;;;;;;;;;;5085512;28;24425;-46
2022/07/11 14:44:37;;;;;;;0.95;0.90;;;;;;;;;;5098140;28;24826;-46
2022/07/11 14:47:02;;;;;;;0.80;0.80;;;;;;;;;;5101294;28;24493;-46
2022/07/11 14:49:27;;;;;;;1.10;0.90;;;;;;;;;;5109421;27;24455;-47
2022/07/11 14:51:52;;;;;;;1.00;0.90;;;;;;;;;;5098560;28;24504;-47
2022/07/11 14:54:17;;;;;;;1.10;0.90;;;;;;;;;;5091139;28;24422;-47
2022/07/11 14:56:42;;;;;;;1.80;1.00;;;;;;;;;;5101111;28;24417;-47